Time;durP1;ratioP1;P1;durP2;ratioP2;P2;SDS_P1;SDS_P2;PMS_P1;PMS_P2;Temp;Humidity;BMP_temperature;BMP_pressure;BME280_temperature;BME280_humidity;BME280_pressure;Samples;Min_cycle;Max_cycle;Signal;HPM_P1;HPM_P2
2021/12/15 00:00:11;;;;;;;3.22;2.20;;;17.50;56.50;;;;;;5073508;28;20128;-65
2021/12/15 00:02:37;;;;;;;4.50;3.03;;;17.40;56.40;;;;;;5072150;28;20072;-65
2021/12/15 00:05:05;;;;;;;3.63;2.50;;;17.40;56.40;;;;;;5073180;28;20129;-65
2021/12/15 00:07:31;;;;;;;4.03;2.67;;;17.50;56.50;;;;;;5071075;28;20040;-65
2021/12/15 00:09:57;;;;;;;3.03;2.70;;;17.40;56.50;;;;;;5072211;28;20041;-64
2021/12/15 00:12:23;;;;;;;3.75;2.40;;;17.40;56.50;;;;;;5072242;28;20434;-65
2021/12/15 00:14:49;;;;;;;3.50;2.45;;;17.40;56.50;;;;;;5073099;28;20040;-65
2021/12/15 00:17:16;;;;;;;3.55;3.25;;;17.40;56.50;;;;;;5071825;28;20037;-65
2021/12/15 00:19:42;;;;;;;2.90;2.55;;;17.40;56.50;;;;;;5072947;28;20090;-64
2021/12/15 00:22:12;;;;;;;4.07;2.75;;;17.40;56.50;;;;;;5073049;28;20506;-65
2021/12/15 00:24:38;;;;;;;4.37;3.10;;;17.40;56.50;;;;;;5055089;28;20040;-65
2021/12/15 00:27:04;;;;;;;3.30;2.85;;;17.40;57.20;;;;;;5071932;28;20275;-64
2021/12/15 00:29:30;;;;;;;3.08;2.78;;;17.40;56.50;;;;;;5072844;28;20435;-64
2021/12/15 00:31:57;;;;;;;3.63;2.00;;;17.40;56.60;;;;;;5071854;28;20062;-64
2021/12/15 00:34:24;;;;;;;4.30;2.97;;;17.40;56.60;;;;;;5072696;28;20093;-65
2021/12/15 00:36:49;;;;;;;3.42;2.60;;;17.40;56.60;;;;;;5071670;28;20074;-64
2021/12/15 00:39:18;;;;;;;3.88;2.63;;;17.40;56.60;;;;;;5071415;28;20412;-64
2021/12/15 00:41:44;;;;;;;3.53;2.88;;;17.40;56.60;;;;;;5071602;28;20036;-64
2021/12/15 00:44:11;;;;;;;3.28;2.55;;;17.40;56.60;;;;;;5072300;28;20056;-65
2021/12/15 00:46:38;;;;;;;2.70;2.30;;;17.40;56.60;;;;;;5071201;28;20044;-65
2021/12/15 00:49:05;;;;;;;2.78;2.50;;;17.40;56.60;;;;;;5072414;28;20044;-64
2021/12/15 00:51:31;;;;;;;3.78;2.53;;;17.30;56.60;;;;;;5071394;28;20085;-64
2021/12/15 00:54:00;;;;;;;3.53;2.20;;;17.30;56.60;;;;;;5071113;28;20487;-65
2021/12/15 00:56:26;;;;;;;2.53;2.03;;;17.30;56.60;;;;;;5071054;28;20044;-65
2021/12/15 00:58:51;;;;;;;2.97;2.13;;;17.30;56.60;;;;;;5071316;28;20131;-64
2021/12/15 01:01:17;;;;;;;3.05;2.40;;;17.30;56.70;;;;;;5072273;28;20491;-65
2021/12/15 01:03:43;;;;;;;3.35;3.05;;;17.40;56.70;;;;;;5072120;28;20090;-64
2021/12/15 01:06:12;;;;;;;2.83;2.35;;;17.30;56.70;;;;;;5070966;28;20063;-64
2021/12/15 01:08:44;;;;;;;3.47;2.70;;;17.30;56.70;;;;;;5070908;28;20043;-64
2021/12/15 01:11:25;;;;;;;3.28;2.47;;;17.30;56.70;;;;;;5071176;28;20037;-65
2021/12/15 01:19:52;;;;;;;4.93;2.65;;;17.30;56.70;;;;;;5071616;28;20058;-65
2021/12/15 01:27:46;;;;;;;3.10;2.40;;;17.30;56.70;;;;;;5130317;27;20906;-64
2021/12/15 01:30:15;;;;;;;3.30;2.40;;;17.30;56.80;;;;;;5128960;27;20108;-64
2021/12/15 01:32:42;;;;;;;3.95;2.85;;;17.30;56.80;;;;;;5128902;28;20043;-64
2021/12/15 01:35:09;;;;;;;4.05;2.33;;;17.30;56.80;;;;;;5129120;28;20040;-64
2021/12/15 01:37:35;;;;;;;2.58;2.38;;;17.30;56.80;;;;;;5129976;27;20044;-64
2021/12/15 01:40:01;;;;;;;3.35;2.53;;;17.30;56.80;;;;;;5127265;28;20486;-65
2021/12/15 01:42:30;;;;;;;2.92;2.63;;;17.30;56.80;;;;;;5127973;28;20044;-64
2021/12/15 01:47:44;;;;;;;3.33;2.33;;;17.30;56.90;;;;;;5129668;28;20055;-65
2021/12/15 01:50:10;;;;;;;2.95;2.33;;;17.20;56.80;;;;;;5128619;28;20039;-64
2021/12/15 01:52:40;;;;;;;3.08;2.50;;;17.20;56.80;;;;;;5128496;28;20039;-65
2021/12/15 01:55:14;;;;;;;3.40;2.47;;;17.30;56.90;;;;;;5128641;28;20044;-65
2021/12/15 01:57:41;;;;;;;2.88;2.28;;;17.30;56.90;;;;;;5128471;28;20042;-65
2021/12/15 02:00:13;;;;;;;3.38;2.60;;;17.20;56.80;;;;;;5128720;28;20092;-64
2021/12/15 02:02:39;;;;;;;2.95;2.50;;;17.20;56.90;;;;;;5128219;28;20110;-64
2021/12/15 02:05:06;;;;;;;2.92;2.40;;;17.20;56.80;;;;;;5129700;27;20478;-64
2021/12/15 02:07:32;;;;;;;2.45;2.15;;;17.20;56.90;;;;;;5129233;27;20521;-64
2021/12/15 02:12:41;;;;;;;4.50;2.63;;;17.20;56.90;;;;;;5130267;27;20407;-64
2021/12/15 02:15:17;;;;;;;2.65;2.38;;;17.20;56.90;;;;;;5128985;28;20055;-65
2021/12/15 02:17:44;;;;;;;2.70;2.45;;;17.20;56.90;;;;;;5130207;27;20585;-65
2021/12/15 02:20:12;;;;;;;3.47;3.17;;;17.20;56.90;;;;;;5128967;28;20127;-65
2021/12/15 02:22:41;;;;;;;2.75;2.55;;;17.20;56.90;;;;;;5128840;28;20054;-64
2021/12/15 02:25:10;;;;;;;3.13;2.83;;;17.20;57.00;;;;;;5129143;28;20096;-64
2021/12/15 02:27:37;;;;;;;3.70;2.88;;;17.20;57.70;;;;;;5128883;28;20092;-64
2021/12/15 02:30:20;;;;;;;2.92;2.55;;;17.20;57.00;;;;;;5128749;28;20039;-64
2021/12/15 02:33:00;;;;;;;3.83;3.30;;;17.20;57.00;;;;;;5129943;27;20479;-64
2021/12/15 02:38:11;;;;;;;2.70;2.47;;;17.20;57.00;;;;;;5129637;28;20048;-65
2021/12/15 02:40:39;;;;;;;3.50;2.45;;;17.40;56.80;;;;;;5129585;27;20043;-64
2021/12/15 02:43:05;;;;;;;2.00;1.80;;;17.90;55.90;;;;;;5129905;27;20028;-64
2021/12/15 02:45:32;;;;;;;1.75;1.52;;;18.80;54.10;;;;;;5129852;27;20035;-64
2021/12/15 02:48:00;;;;;;;1.65;1.20;;;19.80;51.70;;;;;;5128658;28;20053;-64
2021/12/15 02:50:28;;;;;;;2.20;1.58;;;21.10;48.90;;;;;;5129498;28;20496;-64
2021/12/15 02:52:58;;;;;;;1.40;1.15;;;22.20;46.20;;;;;;5128473;28;20075;-64
2021/12/15 02:55:24;;;;;;;2.30;1.10;;;23.10;44.10;;;;;;5129761;27;20035;-64
2021/12/15 02:57:50;;;;;;;1.80;1.08;;;23.90;43.20;;;;;;5128250;27;20126;-64
2021/12/15 03:00:22;;;;;;;1.50;1.15;;;24.50;41.30;;;;;;5128113;28;20074;-64
2021/12/15 03:03:17;;;;;;;1.38;1.02;;;24.90;40.40;;;;;;5128410;27;20085;-65
2021/12/15 03:05:46;;;;;;;1.25;1.00;;;25.20;39.80;;;;;;5129048;27;20047;-64
2021/12/15 03:08:18;;;;;;;1.92;1.20;;;25.50;39.10;;;;;;5128329;28;20043;-64
2021/12/15 03:16:20;;;;;;;2.08;1.00;;;25.90;38.40;;;;;;5127827;28;20376;-65
2021/12/15 03:18:49;;;;;;;1.33;0.77;;;25.70;38.50;;;;;;5128118;28;20114;-64
2021/12/15 03:21:21;;;;;;;1.48;1.15;;;25.50;38.80;;;;;;5127705;28;20093;-64
2021/12/15 03:23:52;;;;;;;1.23;1.05;;;25.30;39.10;;;;;;5116540;27;20402;-65
2021/12/15 03:26:23;;;;;;;1.25;0.95;;;25.00;39.50;;;;;;5114183;28;20043;-64
2021/12/15 03:34:45;;;;;;;1.90;1.33;;;24.00;41.30;;;;;;5113899;28;20058;-64
2021/12/15 03:40:05;;;;;;;2.00;1.55;;;23.40;42.40;;;;;;5130265;27;20407;-64
2021/12/15 03:42:36;;;;;;;2.83;1.65;;;23.10;42.90;;;;;;5129027;27;20054;-64
2021/12/15 03:45:07;;;;;;;1.42;1.33;;;22.90;43.40;;;;;;5129030;28;20047;-64
2021/12/15 03:47:35;;;;;;;2.53;1.70;;;22.70;43.80;;;;;;5129134;28;20047;-64
2021/12/15 03:50:07;;;;;;;2.38;1.58;;;22.50;44.10;;;;;;5128933;28;20047;-64
2021/12/15 03:52:33;;;;;;;1.85;1.35;;;22.40;44.50;;;;;;5111826;28;20444;-64
2021/12/15 03:55:01;;;;;;;2.67;1.77;;;22.30;45.50;;;;;;5129081;28;20079;-64
2021/12/15 03:57:27;;;;;;;2.45;1.75;;;22.20;44.90;;;;;;5130038;27;20035;-64
2021/12/15 03:59:57;;;;;;;2.97;2.03;;;22.10;45.00;;;;;;5129972;28;20036;-64
2021/12/15 04:02:23;;;;;;;2.83;2.08;;;22.10;45.10;;;;;;5128585;28;20035;-64
2021/12/15 04:04:50;;;;;;;2.20;1.50;;;22.10;45.00;;;;;;5128882;28;20122;-64
2021/12/15 04:07:19;;;;;;;2.85;1.85;;;22.20;44.90;;;;;;5129854;27;20062;-64
2021/12/15 04:09:45;;;;;;;2.10;1.83;;;22.30;44.70;;;;;;5129800;27;20051;-66
2021/12/15 04:12:12;;;;;;;1.58;1.25;;;22.40;44.50;;;;;;5128482;28;20047;-64
2021/12/15 04:14:45;;;;;;;2.30;1.77;;;22.40;44.30;;;;;;5128658;28;20085;-64
2021/12/15 04:17:26;;;;;;;2.58;1.75;;;22.50;44.20;;;;;;5128317;28;20055;-63
2021/12/15 04:19:55;;;;;;;3.22;2.22;;;22.60;43.90;;;;;;5129712;27;20173;-64
2021/12/15 04:22:22;;;;;;;2.45;1.90;;;22.70;43.70;;;;;;5128448;28;20491;-64
2021/12/15 04:24:49;;;;;;;3.70;1.90;;;22.70;43.50;;;;;;5129539;27;20039;-64
2021/12/15 04:27:15;;;;;;;1.90;1.60;;;22.80;43.40;;;;;;5128450;28;20042;-64
2021/12/15 04:29:40;;;;;;;2.28;2.00;;;23.00;43.20;;;;;;5128102;28;20714;-64
2021/12/15 04:32:12;;;;;;;1.85;1.55;;;23.10;42.90;;;;;;5128329;28;20059;-64
2021/12/15 04:34:38;;;;;;;1.98;1.55;;;23.10;42.70;;;;;;5145331;27;20040;-64
2021/12/15 04:37:04;;;;;;;2.08;1.73;;;23.30;42.60;;;;;;5127893;28;20096;-64
2021/12/15 04:39:30;;;;;;;2.58;2.22;;;23.40;42.40;;;;;;5128951;27;20094;-65
2021/12/15 04:41:57;;;;;;;3.25;2.60;;;23.40;42.10;;;;;;5127840;28;20039;-64
2021/12/15 04:44:27;;;;;;;2.80;2.60;;;23.50;42.00;;;;;;5128087;28;20044;-64
2021/12/15 04:47:04;;;;;;;3.03;1.95;;;23.50;41.90;;;;;;5127885;28;20043;-64
2021/12/15 04:49:35;;;;;;;2.78;2.58;;;23.60;41.90;;;;;;5125681;27;20119;-64
2021/12/15 04:52:02;;;;;;;2.88;1.92;;;23.60;41.90;;;;;;5114102;28;20071;-64
2021/12/15 04:54:28;;;;;;;2.58;1.85;;;23.50;41.90;;;;;;5114246;28;20114;-64
2021/12/15 04:56:55;;;;;;;2.95;2.72;;;23.40;42.00;;;;;;5130982;27;20074;-64
2021/12/15 04:59:21;;;;;;;3.25;1.88;;;23.40;42.00;;;;;;5113825;28;20462;-65
2021/12/15 05:01:47;;;;;;;2.50;2.20;;;23.30;42.10;;;;;;5115310;28;20032;-64
2021/12/15 05:04:13;;;;;;;2.65;2.13;;;23.30;42.30;;;;;;5113924;28;20382;-65
2021/12/15 05:06:39;;;;;;;2.85;2.35;;;23.30;42.40;;;;;;5115157;28;20059;-64
2021/12/15 05:09:06;;;;;;;3.15;2.42;;;23.20;42.50;;;;;;5113955;28;20518;-66
2021/12/15 05:11:32;;;;;;;3.03;2.72;;;23.10;42.60;;;;;;5114824;28;20074;-64
2021/12/15 05:13:58;;;;;;;2.90;2.65;;;23.00;42.60;;;;;;5115101;28;20111;-64
2021/12/15 05:16:26;;;;;;;2.67;2.45;;;23.00;42.80;;;;;;5113539;28;20047;-65
2021/12/15 05:18:52;;;;;;;2.95;2.72;;;22.90;43.00;;;;;;5113392;28;20571;-65
2021/12/15 05:21:18;;;;;;;3.53;3.22;;;22.90;43.00;;;;;;5114781;28;20039;-64
2021/12/15 05:23:53;;;;;;;3.15;2.80;;;22.80;43.10;;;;;;5114697;28;20563;-65
2021/12/15 05:26:20;;;;;;;2.95;2.75;;;22.70;43.30;;;;;;5114525;28;20111;-64
2021/12/15 05:28:45;;;;;;;3.17;2.70;;;22.70;43.50;;;;;;5114569;28;20048;-64
2021/12/15 05:31:11;;;;;;;3.15;2.85;;;22.60;43.50;;;;;;5113299;28;20047;-64
2021/12/15 05:33:37;;;;;;;2.97;2.67;;;22.60;43.70;;;;;;5113191;28;20043;-64
2021/12/15 05:36:04;;;;;;;3.95;2.97;;;22.60;43.70;;;;;;5114442;28;20117;-64
2021/12/15 05:38:30;;;;;;;3.45;3.15;;;22.50;43.80;;;;;;5114162;28;20059;-65
2021/12/15 05:40:57;;;;;;;2.95;2.70;;;22.50;43.80;;;;;;5112976;28;20402;-65
2021/12/15 05:43:23;;;;;;;3.28;3.08;;;22.50;43.90;;;;;;5113356;28;20063;-65
2021/12/15 05:45:52;;;;;;;3.30;2.97;;;22.50;43.90;;;;;;5113233;28;20046;-65
2021/12/15 05:48:19;;;;;;;3.78;3.47;;;22.50;43.90;;;;;;5112962;28;20043;-65
2021/12/15 05:50:47;;;;;;;3.28;2.97;;;22.50;43.90;;;;;;5114104;28;20505;-65
2021/12/15 05:53:14;;;;;;;3.70;3.10;;;22.40;43.90;;;;;;5112830;28;20043;-66
2021/12/15 05:55:41;;;;;;;4.28;3.65;;;22.50;43.90;;;;;;5112874;28;20032;-65
2021/12/15 05:58:09;;;;;;;4.28;3.33;;;22.50;43.90;;;;;;5112698;28;20051;-64
2021/12/15 06:00:39;;;;;;;3.83;3.42;;;22.50;43.90;;;;;;5112825;28;20144;-65
2021/12/15 06:03:06;;;;;;;3.23;2.93;;;22.50;43.90;;;;;;5113105;28;20523;-65
2021/12/15 06:05:33;;;;;;;3.55;3.25;;;22.50;43.80;;;;;;5112688;28;20050;-64
2021/12/15 06:07:59;;;;;;;4.13;3.72;;;22.50;43.80;;;;;;5112831;28;20114;-64
2021/12/15 06:10:27;;;;;;;4.05;3.72;;;22.60;43.80;;;;;;5112655;28;20198;-64
2021/12/15 06:12:55;;;;;;;3.92;3.53;;;22.50;43.70;;;;;;5112474;28;20039;-64
2021/12/15 06:15:26;;;;;;;4.45;4.05;;;22.50;43.70;;;;;;5112614;28;20050;-65
2021/12/15 06:17:56;;;;;;;4.05;3.67;;;22.50;43.70;;;;;;5112491;28;20044;-65
2021/12/15 06:20:22;;;;;;;4.45;3.25;;;22.60;43.70;;;;;;5112231;28;20110;-64
2021/12/15 06:22:48;;;;;;;3.47;3.17;;;22.50;43.70;;;;;;5112249;28;20046;-64
2021/12/15 06:25:14;;;;;;;3.60;3.30;;;22.60;43.70;;;;;;5112448;28;20040;-65
2021/12/15 06:27:41;;;;;;;4.13;3.65;;;22.50;43.70;;;;;;5112369;28;20475;-65
2021/12/15 06:30:08;;;;;;;4.35;3.95;;;22.60;43.70;;;;;;5111474;28;20039;-67
2021/12/15 06:32:34;;;;;;;5.03;4.28;;;22.60;43.80;;;;;;5113275;28;20115;-66
2021/12/15 06:35:00;;;;;;;5.28;4.72;;;22.50;43.80;;;;;;5111393;28;20054;-67
2021/12/15 06:37:27;;;;;;;7.38;6.68;;;22.50;44.00;;;;;;5111629;28;20494;-67
2021/12/15 06:39:55;;;;;;;7.32;5.90;;;22.50;44.40;;;;;;5112472;28;20051;-66
2021/12/15 06:42:21;;;;;;;5.90;5.40;;;22.30;44.70;;;;;;5108448;28;20415;-66
2021/12/15 06:44:47;;;;;;;6.63;6.03;;;22.20;45.10;;;;;;5109684;28;20055;-66
2021/12/15 06:47:44;;;;;;;6.15;5.57;;;22.20;45.30;;;;;;5106331;28;20064;-66
2021/12/15 06:58:17;;;;;;;11.25;10.10;;;22.00;46.10;;;;;;5092920;28;20126;-66
2021/12/15 07:00:52;;;;;;;13.23;11.45;;;21.80;46.30;;;;;;5096112;28;20036;-66
2021/12/15 07:03:19;;;;;;;14.85;13.30;;;21.70;46.60;;;;;;5095135;28;20425;-66
2021/12/15 07:05:45;;;;;;;13.77;12.32;;;21.60;46.90;;;;;;5079554;28;20043;-67
2021/12/15 07:08:15;;;;;;;15.38;13.50;;;21.50;46.90;;;;;;5083468;28;20043;-66
2021/12/15 07:10:44;;;;;;;14.27;12.88;;;21.50;47.10;;;;;;5086042;28;20059;-66
2021/12/15 07:13:12;;;;;;;14.98;11.63;;;21.40;47.10;;;;;;5104188;27;20065;-66
2021/12/15 07:15:38;;;;;;;14.98;13.38;;;21.40;47.30;;;;;;5092059;28;20044;-68
2021/12/15 07:18:09;;;;;;;17.75;15.93;;;21.50;47.30;;;;;;5088789;28;20047;-67
2021/12/15 07:23:20;;;;;;;15.55;14.02;;;21.40;47.50;;;;;;5115841;27;20380;-67
2021/12/15 07:25:47;;;;;;;;;;;21.40;47.50;;;;;;5099832;28;20059;-67
2021/12/15 07:28:19;;;;;;;15.48;12.85;;;21.40;47.50;;;;;;5095504;28;19934;-66
2021/12/15 07:30:46;;;;;;;14.35;11.57;;;21.40;47.80;;;;;;5115802;27;20145;-67
2021/12/15 07:33:12;;;;;;;24.55;12.10;;;21.50;47.60;;;;;;5103656;28;20051;-68
2021/12/15 07:35:39;;;;;;;19.85;11.93;;;21.80;47.50;;;;;;5119049;27;20138;-65
2021/12/15 07:38:08;;;;;;;20.08;11.88;;;22.00;47.30;;;;;;5097052;28;20043;-66
2021/12/15 07:40:37;;;;;;;16.45;10.93;;;22.00;47.30;;;;;;5119521;27;20659;-66
2021/12/15 07:43:08;;;;;;;12.20;10.00;;;22.10;47.20;;;;;;5120452;27;20071;-66
2021/12/15 07:45:39;;;;;;;13.75;9.48;;;22.20;47.10;;;;;;5120233;27;20032;-66
2021/12/15 07:48:10;;;;;;;16.48;9.38;;;22.30;47.10;;;;;;5105835;28;20133;-66
2021/12/15 07:50:38;;;;;;;14.50;9.25;;;22.30;47.40;;;;;;5100218;28;20046;-65
2021/12/15 07:53:08;;;;;;;14.88;8.70;;;22.20;47.50;;;;;;5100768;28;20047;-67
2021/12/15 07:55:35;;;;;;;15.30;7.72;;;22.10;47.90;;;;;;5104372;28;20073;-65
2021/12/15 07:58:03;;;;;;;11.55;7.50;;;22.00;48.30;;;;;;5104035;27;20035;-66
2021/12/15 08:00:29;;;;;;;13.38;7.68;;;21.90;48.60;;;;;;5104597;28;20054;-66
2021/12/15 08:02:55;;;;;;;11.18;7.53;;;21.70;49.00;;;;;;5106397;27;20100;-66
2021/12/15 08:05:22;;;;;;;12.52;8.65;;;21.60;49.50;;;;;;5107236;28;20037;-67
2021/12/15 08:07:47;;;;;;;9.55;7.47;;;21.40;49.90;;;;;;5103237;28;20189;-67
2021/12/15 08:10:14;;;;;;;19.88;8.55;;;21.30;50.40;;;;;;5101992;28;20122;-64
2021/12/15 08:12:41;;;;;;;10.77;7.40;;;21.20;50.80;;;;;;5106139;28;20040;-70
2021/12/15 08:15:08;;;;;;;9.13;6.90;;;21.10;51.20;;;;;;5117497;27;20139;-66
2021/12/15 08:17:36;;;;;;;8.90;7.75;;;21.00;51.50;;;;;;5096609;28;20389;-67
2021/12/15 08:20:07;;;;;;;11.45;8.15;;;20.90;51.80;;;;;;5088228;28;20090;-66
2021/12/15 08:22:33;;;;;;;10.93;7.07;;;20.80;52.30;;;;;;5105722;28;20282;-65
2021/12/15 08:24:59;;;;;;;10.95;7.25;;;20.70;52.60;;;;;;5097073;28;20047;-66
2021/12/15 08:27:24;;;;;;;9.80;7.05;;;20.60;52.70;;;;;;5097679;27;20731;-66
2021/12/15 08:29:50;;;;;;;10.65;6.65;;;20.50;52.80;;;;;;5115548;27;20042;-66
2021/12/15 08:32:16;;;;;;;11.98;7.97;;;20.50;53.10;;;;;;5097596;28;20053;-67
2021/12/15 08:34:42;;;;;;;8.35;6.30;;;20.40;53.40;;;;;;5079931;28;20044;-69
2021/12/15 08:37:13;;;;;;;9.63;7.90;;;20.40;53.70;;;;;;5079300;28;20052;-67
2021/12/15 08:39:41;;;;;;;11.57;7.50;;;20.40;53.90;;;;;;5080464;28;20038;-67
2021/12/15 08:42:11;;;;;;;12.93;7.82;;;20.30;54.30;;;;;;5095273;27;20597;-66
2021/12/15 08:44:37;;;;;;;10.52;6.97;;;20.40;54.50;;;;;;5079337;28;20044;-68
2021/12/15 08:47:05;;;;;;;13.95;7.45;;;20.30;55.40;;;;;;5092679;27;20094;-66
2021/12/15 08:49:31;;;;;;;9.82;6.55;;;20.30;54.70;;;;;;5086408;28;20040;-64
2021/12/15 08:52:00;;;;;;;7.90;6.78;;;20.20;54.80;;;;;;5085913;28;20097;-67
2021/12/15 08:54:29;;;;;;;8.63;7.00;;;20.20;54.80;;;;;;5085903;28;20665;-65
2021/12/15 08:56:55;;;;;;;8.30;6.15;;;20.20;55.00;;;;;;5085162;28;20075;-65
2021/12/15 08:59:21;;;;;;;11.88;7.05;;;20.20;55.00;;;;;;5084300;28;20613;-67
2021/12/15 09:01:48;;;;;;;13.05;6.28;;;20.20;55.10;;;;;;5085334;28;20044;-67
2021/12/15 09:04:14;;;;;;;8.05;7.25;;;20.20;55.20;;;;;;5086617;28;20106;-71
2021/12/15 09:06:42;;;;;;;9.88;5.78;;;20.20;55.20;;;;;;5078260;28;20141;-66
2021/12/15 09:09:11;;;;;;;9.45;5.55;;;20.20;55.20;;;;;;5105035;27;20047;-65
2021/12/15 09:11:37;;;;;;;6.10;5.53;;;20.20;55.00;;;;;;5091511;28;20040;-66
2021/12/15 09:14:06;;;;;;;6.95;5.90;;;20.20;54.70;;;;;;5086602;28;20058;-65
2021/12/15 09:16:33;;;;;;;6.60;5.30;;;20.20;54.60;;;;;;5087026;28;20059;-64
2021/12/15 09:19:00;;;;;;;11.85;5.80;;;20.20;54.50;;;;;;5084712;28;20039;-70
2021/12/15 09:21:28;;;;;;;15.25;8.45;;;20.20;54.50;;;;;;5088499;28;20121;-65
2021/12/15 09:23:55;;;;;;;16.50;8.77;;;20.10;54.50;;;;;;5080552;28;20035;-64
2021/12/15 09:26:27;;;;;;;17.85;7.80;;;20.10;54.60;;;;;;5080286;28;20074;-66
2021/12/15 09:28:53;;;;;;;21.67;7.88;;;20.10;54.80;;;;;;5080449;28;20788;-64
2021/12/15 09:31:19;;;;;;;19.20;7.60;;;20.10;55.10;;;;;;5083594;28;20062;-66
2021/12/15 09:33:48;;;;;;;11.32;6.93;;;20.10;55.30;;;;;;5086336;28;20475;-64
2021/12/15 09:36:15;;;;;;;19.27;9.23;;;20.10;55.40;;;;;;5085074;28;20032;-67
2021/12/15 09:38:43;;;;;;;15.93;11.63;;;20.10;55.20;;;;;;5086323;28;20068;-63
2021/12/15 09:41:11;;;;;;;16.33;12.25;;;20.10;55.00;;;;;;5083800;28;20051;-62
2021/12/15 09:43:37;;;;;;;23.27;13.93;;;20.00;54.60;;;;;;5101131;27;20038;-64
2021/12/15 09:46:24;;;;;;;22.58;14.45;;;20.00;54.50;;;;;;5085910;28;20107;-63
2021/12/15 10:02:56;;;;;;;24.48;13.57;;;19.70;54.20;;;;;;5080847;28;20055;-64
2021/12/15 10:11:41;;;;;;;15.02;11.43;;;19.90;54.60;;;;;;5079772;28;20052;-65
2021/12/15 10:24:54;;;;;;;13.77;8.88;;;20.20;54.40;;;;;;5092935;27;20470;-65
2021/12/15 10:27:46;;;;;;;15.27;8.70;;;20.40;54.30;;;;;;5111221;28;20071;-64
2021/12/15 10:35:54;;;;;;;18.40;10.55;;;20.40;54.40;;;;;;5124287;27;1151012;-65
2021/12/15 10:38:27;;;;;;;14.05;11.48;;;20.40;54.20;;;;;;5120752;27;20495;-65
2021/12/15 10:54:46;;;;;;;11.52;8.63;;;20.20;54.10;;;;;;5125014;27;20337;-66
2021/12/15 10:59:56;;;;;;;13.98;8.85;;;20.20;54.10;;;;;;5090106;27;20801;-65
2021/12/15 11:02:30;;;;;;;15.77;9.65;;;20.10;53.90;;;;;;5060963;28;20040;-64
2021/12/15 11:05:01;;;;;;;13.65;8.07;;;20.10;53.90;;;;;;5078199;28;20044;-65
2021/12/15 11:10:30;;;;;;;13.80;7.03;;;20.10;53.90;;;;;;5086716;27;20467;-66
2021/12/15 11:13:03;;;;;;;13.55;8.00;;;20.10;54.00;;;;;;5072386;28;20677;-67
2021/12/15 11:15:32;;;;;;;13.23;6.38;;;20.10;54.10;;;;;;5070189;28;20055;-66
2021/12/15 11:18:02;;;;;;;9.00;6.07;;;20.10;54.20;;;;;;5083119;28;20036;-64
2021/12/15 11:20:32;;;;;;;19.08;7.15;;;20.10;54.20;;;;;;5071770;28;20165;-64
2021/12/15 11:31:28;;;;;;;7.90;4.57;;;20.10;54.00;;;;;;5081656;27;20465;-65
2021/12/15 11:33:57;;;;;;;11.60;6.00;;;20.10;54.20;;;;;;5060973;28;20156;-66
2021/12/15 11:36:31;;;;;;;11.10;6.00;;;20.10;54.30;;;;;;5080448;28;20034;-66
2021/12/15 11:39:04;;;;;;;14.32;8.40;;;20.10;54.30;;;;;;5067790;28;20052;-65
2021/12/15 11:41:38;;;;;;;13.70;9.00;;;20.10;54.10;;;;;;5073553;28;20726;-64
2021/12/15 11:44:12;;;;;;;14.27;9.50;;;20.00;53.90;;;;;;5062079;28;20528;-66
2021/12/15 11:46:41;;;;;;;11.77;8.52;;;19.90;53.90;;;;;;5078985;28;20118;-65
2021/12/15 11:49:13;;;;;;;11.23;7.60;;;19.90;54.00;;;;;;5064020;28;20056;-66
2021/12/15 11:51:58;;;;;;;10.88;7.88;;;19.80;54.00;;;;;;5064455;28;20044;-66
2021/12/15 12:02:47;;;;;;;9.13;5.35;;;19.80;53.70;;;;;;5083967;27;20364;-65
2021/12/15 12:05:17;;;;;;;;;;;19.90;53.70;;;;;;5064493;28;20397;-66
2021/12/15 12:10:42;;;;;;;7.32;4.05;;;20.00;53.50;;;;;;5137535;27;1217576;-65
2021/12/15 12:13:15;;;;;;;5.07;3.90;;;20.00;53.40;;;;;;5135375;27;20067;-66
2021/12/15 12:15:46;;;;;;;4.25;2.95;;;20.10;53.40;;;;;;5135448;27;20038;-65
2021/12/15 12:18:16;;;;;;;6.13;3.15;;;20.10;54.10;;;;;;5138992;27;20047;-65
2021/12/15 12:20:48;;;;;;;4.50;2.80;;;20.10;53.30;;;;;;5164570;27;20026;-66
2021/12/15 12:23:19;;;;;;;5.65;2.95;;;20.10;53.30;;;;;;5149524;27;20046;-66
2021/12/15 12:25:48;;;;;;;6.28;2.83;;;20.20;53.40;;;;;;5149646;27;20109;-66
2021/12/15 12:28:18;;;;;;;6.35;2.30;;;20.20;53.40;;;;;;5147645;27;20043;-65
2021/12/15 12:30:48;;;;;;;3.63;2.25;;;20.20;53.40;;;;;;5129659;27;20063;-66
2021/12/15 12:33:15;;;;;;;5.65;2.40;;;20.20;53.40;;;;;;5139693;27;20056;-65
2021/12/15 12:35:48;;;;;;;2.92;1.90;;;20.20;53.40;;;;;;5149367;27;20490;-65
2021/12/15 12:38:19;;;;;;;5.22;2.40;;;20.20;53.50;;;;;;5149659;27;20034;-65
2021/12/15 12:40:53;;;;;;;3.70;1.92;;;20.20;53.60;;;;;;5137571;27;20449;-65
2021/12/15 12:49:13;;;;;;;6.72;2.50;;;20.10;53.70;;;;;;5087250;28;20398;-66
2021/12/15 12:57:58;;;;;;;5.95;3.15;;;20.10;54.30;;;;;;5087043;28;20047;-65
2021/12/15 13:03:02;;;;;;;5.65;2.72;;;20.10;54.40;;;;;;5128380;27;20418;-67
2021/12/15 13:14:09;;;;;;;25.65;4.70;;;20.10;54.80;;;;;;5126445;27;20177;-67
2021/12/15 13:19:39;;;;;;;10.45;3.00;;;20.10;54.70;;;;;;5128290;27;20444;-66
2021/12/15 13:33:16;;;;;;;6.63;1.85;;;20.10;54.30;;;;;;5087710;28;20916;-66
2021/12/15 13:38:40;;;;;;;4.25;2.05;;;20.10;54.10;;;;;;5127762;27;20047;-67
2021/12/15 13:49:32;;;;;;;5.38;1.65;;;20.10;54.00;;;;;;5128279;27;20868;-68
2021/12/15 13:52:04;;;;;;;5.70;1.90;;;20.00;53.90;;;;;;5127670;28;20150;-70
2021/12/15 14:02:34;;;;;;;4.85;1.33;;;20.00;53.90;;;;;;5126202;27;20391;-69
2021/12/15 14:13:16;;;;;;;5.47;1.25;;;20.00;53.80;;;;;;5127081;27;20868;-69
2021/12/15 14:15:45;;;;;;;4.00;1.10;;;20.00;53.70;;;;;;5123359;28;20044;-65
2021/12/15 14:21:11;;;;;;;6.15;0.90;;;20.00;53.60;;;;;;5105980;27;20930;-63
2021/12/15 14:23:45;;;;;;;5.07;0.98;;;20.00;53.50;;;;;;5103589;28;20071;-64
2021/12/15 14:26:20;;;;;;;1.58;0.88;;;19.90;53.40;;;;;;5105061;28;20055;-64
2021/12/15 14:28:49;;;;;;;4.00;1.20;;;19.90;53.50;;;;;;5092666;28;20047;-64
2021/12/15 14:31:24;;;;;;;2.33;1.13;;;19.90;53.50;;;;;;5108127;28;20083;-64
2021/12/15 14:33:53;;;;;;;5.40;0.90;;;19.80;53.40;;;;;;5114060;28;20040;-64
2021/12/15 14:36:26;;;;;;;3.40;0.88;;;19.80;53.40;;;;;;5106650;28;20102;-64
2021/12/15 14:38:54;;;;;;;2.63;0.70;;;19.80;53.40;;;;;;5106685;28;20071;-64
2021/12/15 14:44:10;;;;;;;4.15;0.65;;;19.70;53.30;;;;;;5127874;27;20349;-64
2021/12/15 14:46:40;;;;;;;2.85;0.47;;;19.60;53.20;;;;;;5124936;28;20039;-64
2021/12/15 14:49:30;;;;;;;1.77;0.50;;;19.70;53.30;;;;;;5126419;28;20681;-64
2021/12/15 14:52:00;;;;;;;2.67;0.57;;;19.60;53.10;;;;;;5128070;27;20043;-63
2021/12/15 14:54:27;;;;;;;1.70;0.63;;;19.60;53.20;;;;;;5126885;28;20599;-64
2021/12/15 15:02:34;;;;;;;1.52;0.52;;;19.60;53.20;;;;;;5127554;27;20406;-64
2021/12/15 15:05:04;;;;;;;1.70;0.40;;;19.60;53.00;;;;;;5126667;28;20664;-64
2021/12/15 15:07:35;;;;;;;2.30;0.70;;;19.60;52.90;;;;;;5128608;27;20027;-64
2021/12/15 15:10:02;;;;;;;;;;;19.70;52.90;;;;;;5128848;28;20046;-64
2021/12/15 15:12:33;;;;;;;2.40;0.40;;;19.70;52.80;;;;;;5128420;28;19916;-63
2021/12/15 15:15:04;;;;;;;1.40;0.50;;;19.60;52.80;;;;;;5127886;28;20066;-64
2021/12/15 15:20:36;;;;;;;1.30;0.40;;;19.60;52.60;;;;;;5129235;27;20353;-64
2021/12/15 15:23:04;;;;;;;;;;;19.70;52.60;;;;;;5127611;28;20130;-64
2021/12/15 15:25:31;;;;;;;1.98;0.40;;;19.70;52.50;;;;;;5127740;28;19915;-64
2021/12/15 15:28:02;;;;;;;1.00;0.30;;;19.70;52.60;;;;;;5128247;28;20039;-63
2021/12/15 15:30:28;;;;;;;;;;;19.70;52.50;;;;;;5128922;28;20043;-64
2021/12/15 15:32:58;;;;;;;1.02;0.43;;;19.70;52.40;;;;;;5128253;28;19920;-64
2021/12/15 15:35:28;;;;;;;3.17;0.60;;;19.70;52.50;;;;;;5128038;27;20040;-63
2021/12/15 15:38:01;;;;;;;1.15;0.32;;;19.60;52.40;;;;;;5127837;28;20039;-64
2021/12/15 15:40:33;;;;;;;1.25;0.40;;;19.70;52.40;;;;;;5128073;28;20582;-64
2021/12/15 15:43:12;;;;;;;2.00;0.40;;;19.60;52.40;;;;;;5129110;27;20052;-64
2021/12/15 15:45:43;;;;;;;2.17;0.32;;;19.60;52.40;;;;;;5127841;28;20047;-64
2021/12/15 15:48:19;;;;;;;1.27;0.38;;;19.60;52.40;;;;;;5129159;27;20081;-64
2021/12/15 15:50:57;;;;;;;1.50;0.30;;;19.60;52.40;;;;;;5128062;28;20058;-64
2021/12/15 15:53:23;;;;;;;1.17;0.40;;;19.60;53.20;;;;;;5129094;27;20496;-64
2021/12/15 15:55:54;;;;;;;1.65;0.20;;;19.60;52.40;;;;;;5127592;28;20513;-64
2021/12/15 15:58:19;;;;;;;0.88;0.40;;;19.60;52.50;;;;;;5128584;27;20043;-64
2021/12/15 16:00:51;;;;;;;0.82;0.30;;;19.60;52.50;;;;;;5128616;28;20043;-64
2021/12/15 16:03:22;;;;;;;2.28;0.43;;;19.50;52.40;;;;;;5128772;27;20039;-64
2021/12/15 16:05:48;;;;;;;2.00;0.32;;;19.50;52.50;;;;;;5128681;27;20092;-64
2021/12/15 16:08:16;;;;;;;0.80;0.40;;;19.40;52.50;;;;;;5128844;27;20047;-63
2021/12/15 16:10:46;;;;;;;2.75;0.40;;;19.40;52.60;;;;;;5127557;28;20529;-64
2021/12/15 16:13:16;;;;;;;1.45;0.43;;;19.30;52.70;;;;;;5128313;27;20494;-64